Terminal Aerodrome Forecast
Issued by NWS

Current Version | Previous Version | Text Only | Print | Product List | Glossary On
Versions: 1 2 3 4 5 6 7 8 9 10 11 12 13 14 15 16 17
000
FTUS46 KMTR 271724
TAFSJC
TAF
KSJC 271724Z 2718/2818 VRB03KT P6SM SCT025
     FM272000 30008KT P6SM FEW030
     FM272200 30012KT P6SM SKC
     FM280500 31007KT P6SM FEW018
     FM280800 31003KT P6SM BKN014
     FM281100 VRB03KT P6SM OVC014
     FM281600 28005KT P6SM SCT017=

USA.gov is the U.S. government's official web portal to all federal, state and local government web resources and services.